Home   Weather   Germany   Detmold   Past weeks
Flag for Germany

Past Weather in Detmold, North Rhine-Westphalia, Germany — Yesterday and Last 2 Weeks

Currently: 57 °F. Passing clouds. (Weather station: Paderborn / Lippstadt, Germany). See more current weather

Past Weather in Detmold — Graph

°F

Detmold Temperature Yesterday

Maximum temperature yesterday: 64 °F (at 5:20 pm)
Minimum temperature yesterday: 54 °F (at 6:20 am)
Average temperature yesterday: 58 °F

High & Low Weather Summary for the Past Weeks

 TemperatureHumidityPressure
High77 °F (Jul 24, 1:20 pm)100% (Jul 19, 11:50 pm)30.24 "Hg (Jul 19, 11:50 pm)
Low48 °F (Aug 3, 5:20 am)40% (Jul 29, 6:20 pm)29.71 "Hg (Jul 30, 6:20 pm)
Average63 °F72%29.93 "Hg
* Reported Jul 19 10:20 pm — Aug 3 10:50 pm, Detmold. Weather by CustomWeather, © 2021

Note: Actual official high and low records may vary slightly from our data, if they occured in-between our weather recording intervals... More about our weather records

Detmold Weather History for the Previous 24 Hours

Scroll right to see more
 ConditionsComfort  
Time TempWeatherWind HumidityBarometerVisibility
10:50 pm
Tue, Aug 3
59 °FClear.2 mph82%29.92 "Hg10 mi
10:20 pm57 °FClear.No wind88%29.92 "Hg10 mi
9:50 pm57 °FClear.1 mph88%29.92 "Hg10 mi
8:50 pm59 °FSunny.2 mph82%29.92 "Hg10 mi
8:20 pm61 °FSunny.2 mph77%29.89 "Hg10 mi
7:50 pm61 °FSunny.2 mph77%29.89 "Hg10 mi
7:20 pm63 °FSunny.2 mph73%29.89 "Hg10 mi
6:50 pm63 °FPassing clouds.No wind73%29.89 "HgN/A
6:20 pm63 °FSunny.2 mph73%29.89 "Hg10 mi
5:50 pm63 °FSunny.2 mph73%29.89 "Hg10 mi
5:20 pm63 °FSunny.2 mph68%29.89 "Hg10 mi
4:50 pm61 °FBroken clouds.2 mph77%29.92 "HgN/A
4:20 pm61 °FOvercast.6 mph77%29.92 "HgN/A
3:50 pm61 °FPartly sunny.5 mph77%29.92 "HgN/A
3:20 pm61 °FMore clouds than sun.8 mph72%29.92 "HgN/A
2:50 pm61 °FLight rain. Partly sunny.8 mph68%29.92 "HgN/A
2:20 pm64 °FPartly sunny.5 mph56%29.92 "HgN/A
1:50 pm64 °FPassing clouds.6 mph52%29.92 "HgN/A
1:20 pm63 °FPassing clouds.6 mph59%29.92 "HgN/A
12:50 pm63 °FPassing clouds.6 mph59%29.92 "HgN/A
12:20 pm63 °FPassing clouds.6 mph59%29.92 "HgN/A
11:50 am63 °FPassing clouds.6 mph64%29.92 "HgN/A
11:20 am63 °FPassing clouds.5 mph64%29.95 "HgN/A
10:50 am63 °FPassing clouds.5 mph59%29.95 "HgN/A
10:20 am61 °FPassing clouds.2 mph72%29.95 "HgN/A
9:50 am57 °FPassing clouds.3 mph82%29.95 "HgN/A
9:20 am55 °FSunny.2 mph88%29.95 "Hg10 mi
8:50 am55 °FSunny.2 mph82%29.95 "Hg10 mi
8:20 am55 °FSunny.1 mph82%29.95 "Hg10 mi
7:50 am54 °FSunny.5 mph88%29.95 "Hg10 mi
7:20 am52 °FPassing clouds.5 mph88%29.95 "HgN/A
6:50 am50 °FSunny.7 mph94%29.95 "Hg10 mi
6:20 am48 °FSunny.2 mph94%29.95 "Hg10 mi
5:50 am48 °FClear.2 mph94%29.95 "Hg10 mi
5:20 am48 °FClear.7 mph94%29.98 "Hg10 mi
4:50 am50 °FClear.2 mph88%29.95 "Hg10 mi
4:20 am52 °FClear.1 mph94%29.98 "Hg10 mi
3:50 am50 °FClear.2 mph94%29.98 "Hg10 mi
3:20 am52 °FClear.3 mph94%29.98 "Hg10 mi
2:50 am54 °FPassing clouds.2 mph88%29.98 "HgN/A
2:20 am52 °FPassing clouds.1 mph94%29.98 "HgN/A
1:50 am54 °FPassing clouds.2 mph88%29.98 "HgN/A
1:20 am54 °FPassing clouds.3 mph88%29.98 "HgN/A
12:50 am55 °FPassing clouds.5 mph88%29.98 "HgN/A
12:20 am55 °FOvercast.5 mph88%29.98 "HgN/A
11:50 pm
Mon, Aug 2
55 °FOvercast.6 mph88%29.98 "HgN/A
11:20 pm57 °FPassing clouds.5 mph77%29.98 "HgN/A
Weather by CustomWeather, © 2021

See weather overview